Time;durP1;ratioP1;P1;durP2;ratioP2;P2;SDS_P1;SDS_P2;PMS_P1;PMS_P2;Temp;Humidity;BMP_temperature;BMP_pressure;BME280_temperature;BME280_humidity;BME280_pressure;Samples;Min_cycle;Max_cycle;Signal;HPM_P1;HPM_P2
2021/12/21 00:00:11;;;;;;;12.45;5.75;;;;;;;-2.75;100.00;102766.19;4954539;28;20259;-73
2021/12/21 00:02:36;;;;;;;9.20;5.68;;;;;;;-2.87;100.00;102769.56;4956610;28;20091;-73
2021/12/21 00:05:03;;;;;;;24.05;6.68;;;;;;;-2.87;100.00;102763.44;4940222;28;20386;-73
2021/12/21 00:07:28;;;;;;;16.38;6.97;;;;;;;-2.95;100.00;102757.22;4942807;28;20042;-73
2021/12/21 00:09:53;;;;;;;14.95;6.28;;;;;;;-2.92;100.00;102771.31;4941063;28;20085;-73
2021/12/21 00:12:22;;;;;;;9.40;6.05;;;;;;;-2.94;100.00;102749.38;4958645;28;20081;-74
2021/12/21 00:15:00;;;;;;;11.90;5.82;;;;;;;-2.91;100.00;102766.91;4950626;28;20035;-73
2021/12/21 00:20:47;;;;;;;11.35;5.28;;;;;;;-2.94;100.00;102759.00;4916953;29;20121;-73
2021/12/21 00:25:38;;;;;;;8.40;5.38;;;;;;;-3.10;100.00;102747.44;4923461;28;20511;-73
2021/12/21 00:28:03;;;;;;;14.23;5.53;;;;;;;-3.10;100.00;102755.34;4960407;28;20031;-73
2021/12/21 00:30:29;;;;;;;11.32;5.80;;;;;;;-3.04;100.00;102760.66;4936451;28;20030;-73
2021/12/21 00:32:54;;;;;;;11.82;5.70;;;;;;;-3.03;100.00;102744.03;4925877;28;20490;-73
2021/12/21 00:35:19;;;;;;;11.98;5.60;;;;;;;-3.10;100.00;102750.06;4941542;28;20537;-73
2021/12/21 00:37:46;;;;;;;27.35;5.60;;;;;;;-3.14;100.00;102746.56;4933712;28;20035;-73
2021/12/21 00:40:13;;;;;;;10.70;5.85;;;;;;;-3.15;100.00;102747.41;4922965;28;20157;-73
2021/12/21 00:42:38;;;;;;;11.10;5.47;;;;;;;-3.16;100.00;102746.50;4936866;28;20047;-73
2021/12/21 00:45:04;;;;;;;11.43;5.80;;;;;;;-3.19;100.00;102738.63;4921520;28;20053;-73
2021/12/21 00:47:30;;;;;;;10.68;5.85;;;;;;;-3.29;100.00;102728.88;4937896;28;20041;-73
2021/12/21 00:50:00;;;;;;;9.73;5.55;;;;;;;-3.25;100.00;102729.78;4957325;28;20034;-73
2021/12/21 00:52:26;;;;;;;9.95;6.13;;;;;;;-3.27;100.00;102735.03;4938752;28;20483;-72
2021/12/21 00:54:51;;;;;;;9.82;5.07;;;;;;;-3.31;100.00;102727.97;4926786;28;20022;-72
2021/12/21 00:57:17;;;;;;;8.98;5.32;;;;;;;-3.22;100.00;102742.94;4938504;28;20038;-73
2021/12/21 00:59:42;;;;;;;11.88;5.80;;;;;;;-3.37;100.00;102728.81;4938998;28;20039;-73
2021/12/21 01:02:08;;;;;;;10.85;5.30;;;;;;;-3.40;100.00;102733.13;4938159;28;20030;-73
2021/12/21 01:04:39;;;;;;;15.40;6.15;;;;;;;-3.36;100.00;102727.94;4937074;28;20498;-73
2021/12/21 01:07:19;;;;;;;13.00;5.78;;;;;;;-3.32;100.00;102741.97;4938770;28;20125;-73
2021/12/21 01:12:14;;;;;;;14.23;6.50;;;;;;;-3.32;100.00;102740.25;4937641;28;20394;-72
2021/12/21 01:17:22;;;;;;;16.10;6.50;;;;;;;-3.52;100.00;102734.75;4938777;28;20352;-73
2021/12/21 01:19:59;;;;;;;13.93;6.78;;;;;;;-3.50;100.00;102740.91;4930425;28;20376;-72
2021/12/21 01:22:44;;;;;;;16.33;5.80;;;;;;;-3.55;100.00;102723.31;4944557;28;20042;-73
2021/12/21 01:25:29;;;;;;;19.58;6.72;;;;;;;-3.63;100.00;102721.50;4943358;28;20074;-73
2021/12/21 01:28:06;;;;;;;13.65;6.45;;;;;;;-3.56;100.00;102734.69;4930057;28;20273;-73
2021/12/21 01:30:44;;;;;;;12.55;5.78;;;;;;;-3.68;100.00;102725.81;4939391;28;20716;-73
2021/12/21 01:35:45;;;;;;;16.20;6.85;;;;;;;-3.87;100.00;102714.22;4944157;28;21068;-73
2021/12/21 01:38:28;;;;;;;18.45;8.38;;;;;;;-3.72;100.00;102733.66;4938502;28;20037;-72
2021/12/21 01:41:04;;;;;;;17.95;8.38;;;;;;;-3.67;100.00;102729.31;4944584;28;20165;-72
2021/12/21 01:43:40;;;;;;;15.48;6.88;;;;;;;-3.70;100.00;102713.53;4939029;28;20034;-72
2021/12/21 01:51:33;;;;;;;13.55;5.60;;;;;;;-3.61;100.00;102726.75;4958315;28;20209;-72
2021/12/21 01:53:58;;;;;;;15.23;6.13;;;;;;;-3.69;100.00;102726.69;4942448;28;20023;-72
2021/12/21 01:56:24;;;;;;;17.80;7.32;;;;;;;-3.72;100.00;102710.88;4960322;28;20089;-72
2021/12/21 01:58:50;;;;;;;14.07;7.03;;;;;;;-3.72;100.00;102708.25;4941109;28;20380;-72
2021/12/21 02:01:18;;;;;;;12.45;6.97;;;;;;;-3.74;100.00;102707.38;4945423;28;20030;-72
2021/12/21 02:03:47;;;;;;;23.50;8.18;;;;;;;-3.66;100.00;102716.22;4941667;28;20558;-72
2021/12/21 02:06:14;;;;;;;18.25;7.88;;;;;;;-3.71;100.00;102712.66;4925899;28;20033;-72
2021/12/21 02:08:40;;;;;;;21.98;7.28;;;;;;;-3.85;100.00;102694.13;4958572;28;20054;-72
2021/12/21 02:11:05;;;;;;;16.98;6.55;;;;;;;-3.80;100.00;102712.53;4933118;28;20031;-72
2021/12/21 02:13:35;;;;;;;19.65;8.35;;;;;;;-3.89;100.00;102700.19;4943824;28;20035;-72
2021/12/21 02:16:00;;;;;;;17.25;8.45;;;;;;;-3.84;100.00;102697.63;4948229;28;20356;-72
2021/12/21 02:20:59;;;;;;;24.25;9.50;;;;;;;-3.85;100.00;102691.50;4945288;28;20590;-72
2021/12/21 02:23:35;;;;;;;22.63;9.02;;;;;;;-3.80;100.00;102702.03;4942753;28;20027;-72
2021/12/21 02:31:10;;;;;;;18.73;9.25;;;;;;;-3.75;100.00;102707.34;4947340;28;20061;-73
2021/12/21 02:33:35;;;;;;;16.52;8.68;;;;;;;-3.86;100.00;102697.59;4926277;28;20530;-72
2021/12/21 02:36:01;;;;;;;15.90;7.97;;;;;;;-3.88;100.00;102693.22;4943019;28;20113;-72
2021/12/21 02:38:27;;;;;;;21.20;7.95;;;;;;;-3.84;100.00;102703.75;4947569;28;20424;-72
2021/12/21 02:40:53;;;;;;;12.27;6.95;;;;;;;-3.83;100.00;102707.25;4930694;28;20400;-72
2021/12/21 02:43:19;;;;;;;19.50;7.80;;;;;;;-3.96;100.00;102687.84;4943190;28;20027;-72
2021/12/21 02:45:44;;;;;;;13.77;7.18;;;;;;;-3.94;100.00;102701.84;4959048;28;20030;-72
2021/12/21 02:48:10;;;;;;;18.75;8.10;;;;;;;-4.10;100.00;102680.69;4929319;28;20545;-72
2021/12/21 02:50:38;;;;;;;15.32;6.75;;;;;;;-3.90;100.00;102700.19;4961174;28;20042;-72
2021/12/21 02:53:03;;;;;;;12.23;6.30;;;;;;;-4.05;100.00;102677.25;4943009;28;20089;-72
2021/12/21 02:55:29;;;;;;;13.32;6.40;;;;;;;-3.96;100.00;102690.47;4934285;28;20015;-72
2021/12/21 02:57:57;;;;;;;15.27;6.63;;;;;;;-4.05;100.00;102666.75;4944708;28;20120;-72
2021/12/21 03:00:25;;;;;;;12.68;6.47;;;;;;;-4.01;100.00;102687.78;4927258;28;20517;-72
2021/12/21 03:02:50;;;;;;;13.98;6.45;;;;;;;-4.02;100.00;102693.03;4945682;28;20031;-72
2021/12/21 03:05:15;;;;;;;19.15;7.65;;;;;;;-4.17;100.00;102673.59;4963012;28;20039;-72
2021/12/21 03:10:11;;;;;;;11.38;6.50;;;;;;;-4.05;100.00;102685.97;4944691;28;20031;-72
2021/12/21 03:15:21;;;;;;;10.77;6.32;;;;;;;-4.15;100.00;102671.00;4944411;28;20491;-72
2021/12/21 03:17:47;;;;;;;13.05;6.47;;;;;;;-4.17;100.00;102673.59;4943712;28;20023;-72
2021/12/21 03:20:12;;;;;;;14.57;6.65;;;;;;;-4.11;100.00;102683.31;4932407;28;20046;-72
2021/12/21 03:22:38;;;;;;;12.30;6.90;;;;;;;-4.18;100.00;102687.56;4944173;28;20046;-72
2021/12/21 03:25:05;;;;;;;12.60;6.75;;;;;;;-4.17;100.00;102681.47;4926804;28;20030;-72
2021/12/21 03:27:30;;;;;;;16.58;6.88;;;;;;;-4.16;100.00;102682.34;4929953;28;20129;-72
2021/12/21 03:29:56;;;;;;;17.38;8.15;;;;;;;-4.26;100.00;102669.09;4930153;28;20031;-72
2021/12/21 03:32:21;;;;;;;16.27;6.97;;;;;;;-4.30;100.00;102672.53;4925935;28;20038;-72
2021/12/21 03:34:46;;;;;;;14.90;7.32;;;;;;;-4.38;100.00;102666.34;4960294;28;20109;-72
2021/12/21 03:37:14;;;;;;;15.90;6.72;;;;;;;-4.44;100.00;102667.09;4931660;28;20034;-72
2021/12/21 03:39:41;;;;;;;13.55;7.65;;;;;;;-4.34;100.00;102678.59;4943907;28;20030;-72
2021/12/21 03:42:07;;;;;;;13.73;7.45;;;;;;;-4.32;100.00;102691.75;4943042;28;20459;-72
2021/12/21 03:44:32;;;;;;;15.55;7.40;;;;;;;-4.41;100.00;102676.78;4944291;28;20033;-72
2021/12/21 03:46:58;;;;;;;15.88;8.00;;;;;;;-4.33;100.00;102680.34;4942033;28;20122;-72
2021/12/21 03:50:18;;;;;;;16.92;7.05;;;;;;;-4.28;100.00;102683.06;4944349;28;20026;-72
2021/12/21 03:52:16;;;;;;;18.60;8.32;;;;;;;-4.38;100.00;102671.56;4931956;28;20050;-72
2021/12/21 03:54:44;;;;;;;16.55;8.05;;;;;;;-4.37;100.00;102683.84;4921996;28;20022;-72
2021/12/21 03:57:10;;;;;;;21.75;8.23;;;;;;;-4.54;100.00;102658.22;4943725;28;20479;-72
2021/12/21 03:59:36;;;;;;;21.23;8.32;;;;;;;-4.51;100.00;102662.66;4932630;28;20045;-72
2021/12/21 04:02:03;;;;;;;19.23;7.60;;;;;;;-4.47;100.00;102677.53;4941807;28;20038;-72
2021/12/21 04:04:28;;;;;;;13.30;7.80;;;;;;;-4.54;100.00;102663.47;4943378;28;20094;-72
2021/12/21 04:06:54;;;;;;;13.68;7.78;;;;;;;-4.61;100.00;102652.88;4943163;28;20455;-73
2021/12/21 04:09:19;;;;;;;14.82;6.88;;;;;;;-4.60;100.00;102668.63;4931448;28;20058;-72
2021/12/21 04:11:45;;;;;;;13.65;7.45;;;;;;;-4.54;100.00;102681.81;4925884;28;20482;-72
2021/12/21 04:14:11;;;;;;;13.88;7.47;;;;;;;-4.55;100.00;102687.94;4944611;28;20037;-72
2021/12/21 04:16:37;;;;;;;16.27;7.50;;;;;;;-4.65;100.00;102666.78;4944007;28;20418;-72
2021/12/21 04:19:03;;;;;;;15.05;6.93;;;;;;;-4.50;100.00;102680.13;4942806;28;20410;-72
2021/12/21 04:21:29;;;;;;;18.58;7.82;;;;;;;-4.55;100.00;102666.94;4931101;28;20057;-72
2021/12/21 04:23:54;;;;;;;15.90;7.68;;;;;;;-4.57;100.00;102660.81;4921986;28;20031;-72
2021/12/21 04:26:19;;;;;;;23.15;8.30;;;;;;;-4.56;100.00;102669.56;4928347;29;20038;-72
2021/12/21 04:28:45;;;;;;;16.50;6.68;;;;;;;-4.52;100.00;102676.63;4940230;28;20146;-72
2021/12/21 04:31:11;;;;;;;12.90;7.35;;;;;;;-4.60;100.00;102662.50;4928576;28;20034;-72
2021/12/21 04:33:38;;;;;;;18.25;6.82;;;;;;;-4.57;100.00;102662.56;4929972;28;20030;-72
2021/12/21 04:36:04;;;;;;;16.90;7.85;;;;;;;-4.66;100.00;102642.34;4942171;28;20038;-72
2021/12/21 04:38:36;;;;;;;19.85;7.57;;;;;;;-4.63;100.00;102651.97;4943874;28;20117;-72
2021/12/21 04:41:10;;;;;;;13.60;6.65;;;;;;;-4.67;100.00;102659.78;4942474;28;20031;-72
2021/12/21 04:43:35;;;;;;;16.35;7.07;;;;;;;-4.67;100.00;102656.31;4940700;28;20031;-72
2021/12/21 04:46:01;;;;;;;14.90;7.45;;;;;;;-4.71;100.00;102662.34;4938319;28;20038;-72
2021/12/21 04:48:26;;;;;;;21.42;7.95;;;;;;;-4.72;100.00;102656.22;4930637;28;20082;-72
2021/12/21 04:50:51;;;;;;;15.30;7.05;;;;;;;-4.77;100.00;102655.28;4945434;28;20039;-72
2021/12/21 04:53:17;;;;;;;15.80;7.05;;;;;;;-4.70;100.00;102670.22;4946312;28;20106;-72
2021/12/21 04:55:42;;;;;;;17.35;6.90;;;;;;;-4.76;100.00;102651.78;4943122;28;20038;-72
2021/12/21 04:58:08;;;;;;;14.13;7.18;;;;;;;-4.70;100.00;102658.88;4949803;28;20077;-72
2021/12/21 05:00:34;;;;;;;19.33;6.95;;;;;;;-4.78;100.00;102650.00;4946966;28;20043;-72
2021/12/21 05:02:59;;;;;;;11.80;7.28;;;;;;;-4.77;100.00;102644.81;4943064;28;20039;-72
2021/12/21 05:05:25;;;;;;;13.13;6.45;;;;;;;-4.80;100.00;102636.00;4945617;28;20042;-72
2021/12/21 05:08:04;;;;;;;17.63;7.25;;;;;;;-4.80;100.00;102643.84;4947401;28;20031;-72
2021/12/21 05:10:29;;;;;;;13.55;7.25;;;;;;;-4.86;100.00;102642.91;4929738;28;20026;-72
2021/12/21 05:12:55;;;;;;;21.48;7.47;;;;;;;-4.84;100.00;102641.19;4933877;28;20039;-72
2021/12/21 05:15:20;;;;;;;17.55;7.85;;;;;;;-4.79;100.00;102635.13;4948259;28;20043;-72
2021/12/21 05:17:45;;;;;;;15.13;7.25;;;;;;;-4.88;100.00;102628.03;4935328;28;20045;-72
2021/12/21 05:20:11;;;;;;;14.60;7.78;;;;;;;-4.92;100.00;102627.09;4943077;28;20062;-72
2021/12/21 05:22:36;;;;;;;15.98;8.20;;;;;;;-4.79;100.00;102645.63;4932877;28;20069;-72
2021/12/21 05:25:02;;;;;;;23.70;8.90;;;;;;;-4.71;100.00;102662.34;4947798;28;20604;-72
2021/12/21 05:27:27;;;;;;;17.10;7.93;;;;;;;-4.88;100.00;102638.50;4947331;28;20473;-72
2021/12/21 05:29:53;;;;;;;22.85;10.18;;;;;;;-4.91;100.00;102636.72;4934472;28;20037;-72
2021/12/21 05:32:18;;;;;;;16.10;8.05;;;;;;;-4.90;100.00;102638.47;4927345;28;20042;-72
2021/12/21 05:34:43;;;;;;;13.55;7.78;;;;;;;-4.83;100.00;102647.31;4928265;28;20031;-72
2021/12/21 05:37:09;;;;;;;15.73;7.43;;;;;;;-4.77;100.00;102659.63;4930202;28;20042;-72
2021/12/21 05:39:50;;;;;;;18.05;7.13;;;;;;;-4.71;100.00;102667.59;4936617;28;20042;-72
2021/12/21 05:42:15;;;;;;;12.00;6.63;;;;;;;-4.82;100.00;102649.94;4936237;28;20030;-72
2021/12/21 05:44:40;;;;;;;19.70;7.05;;;;;;;-4.83;100.00;102650.81;4943684;28;20030;-71
2021/12/21 05:47:06;;;;;;;18.20;8.32;;;;;;;-4.82;100.00;102668.28;4945064;28;20077;-72
2021/12/21 05:49:33;;;;;;;13.25;7.40;;;;;;;-4.93;100.00;102648.91;4930963;28;20475;-72
2021/12/21 05:51:59;;;;;;;14.85;7.13;;;;;;;-4.83;100.00;102663.91;4928633;28;20043;-71
2021/12/21 05:54:24;;;;;;;14.57;7.07;;;;;;;-4.89;100.00;102645.47;4947887;28;20046;-72
2021/12/21 05:56:50;;;;;;;15.65;7.55;;;;;;;-4.85;100.00;102652.53;4947705;28;20382;-72
2021/12/21 05:59:15;;;;;;;20.92;8.05;;;;;;;-4.78;100.00;102661.38;4925794;29;20031;-71
2021/12/21 06:01:40;;;;;;;16.90;7.50;;;;;;;-4.73;100.00;102664.06;4925386;28;20422;-72
2021/12/21 06:04:05;;;;;;;13.73;7.50;;;;;;;-4.78;100.00;102647.38;4928835;28;20245;-72
2021/12/21 06:06:32;;;;;;;19.90;7.82;;;;;;;-4.75;100.00;102657.91;4944867;28;20066;-72
2021/12/21 06:09:00;;;;;;;11.10;7.22;;;;;;;-4.79;100.00;102648.25;4962116;28;20106;-72
2021/12/21 06:11:25;;;;;;;13.45;7.15;;;;;;;-4.84;100.00;102654.28;4962632;28;20035;-72
2021/12/21 06:27:08;;;;;;;15.93;6.55;;;;;;;-4.91;100.00;102662.94;4946376;28;20492;-72
2021/12/21 06:29:34;;;;;;;15.10;7.68;;;;;;;-4.99;100.00;102646.19;4928501;28;20031;-72
2021/12/21 06:31:59;;;;;;;13.80;7.15;;;;;;;-4.96;100.00;102654.09;4947332;28;20042;-72
2021/12/21 06:34:25;;;;;;;19.30;7.70;;;;;;;-4.94;100.00;102654.13;4946946;28;20470;-72
2021/12/21 06:36:50;;;;;;;15.25;7.68;;;;;;;-4.98;100.00;102661.94;4933502;28;20046;-72
2021/12/21 06:39:16;;;;;;;13.80;6.85;;;;;;;-4.89;100.00;102671.66;4929547;28;20126;-71
2021/12/21 06:41:41;;;;;;;14.68;7.07;;;;;;;-5.03;100.00;102658.34;4930941;28;20042;-72
2021/12/21 06:44:09;;;;;;;19.73;7.72;;;;;;;-5.05;100.00;102662.69;4945158;28;20387;-72
2021/12/21 06:51:06;;;;;;;14.85;6.60;;;;;;;-5.07;100.00;102663.50;4926674;29;20476;-72
2021/12/21 06:52:22;;;;;;;18.45;8.32;;;;;;;-5.11;100.00;102657.34;4945087;28;20151;-72
2021/12/21 06:54:47;;;;;;;16.45;8.00;;;;;;;-5.11;100.00;102654.75;4929277;28;20112;-73
2021/12/21 06:57:13;;;;;;;17.83;6.00;;;;;;;-5.16;100.00;102643.28;4934760;28;20030;-72
2021/12/21 06:59:38;;;;;;;19.42;7.57;;;;;;;-5.14;100.00;102641.59;4929343;28;20070;-72
2021/12/21 07:02:04;;;;;;;14.07;7.50;;;;;;;-5.09;100.00;102659.97;4965979;28;20034;-72
2021/12/21 07:04:37;;;;;;;8.27;6.18;;;;;;;-5.08;100.00;102640.78;4946305;28;20126;-73
2021/12/21 07:07:03;;;;;;;14.23;7.07;;;;;;;-5.07;100.00;102640.84;4928727;28;20077;-73
2021/12/21 07:09:40;;;;;;;10.90;6.85;;;;;;;-5.08;100.00;102646.94;4931366;28;20035;-73
2021/12/21 07:20:18;;;;;;;9.43;6.55;;;;;;;-5.15;100.00;102660.78;4947104;28;20196;-73
2021/12/21 07:22:44;;;;;;;12.20;7.15;;;;;;;-5.18;100.00;102666.84;4935295;28;20042;-72
2021/12/21 07:25:09;;;;;;;13.77;6.78;;;;;;;-5.21;100.00;102658.03;4926826;28;20463;-72
2021/12/21 07:27:34;;;;;;;13.52;6.88;;;;;;;-5.17;100.00;102673.84;4951533;28;20515;-73
2021/12/21 07:30:00;;;;;;;15.27;6.45;;;;;;;-5.23;100.00;102655.41;4943923;28;20026;-71
2021/12/21 07:32:25;;;;;;;13.50;6.18;;;;;;;-5.21;100.00;102658.03;4946839;28;20042;-73
2021/12/21 07:34:50;;;;;;;10.02;7.10;;;;;;;-5.23;100.00;102658.03;4950636;28;20031;-72
2021/12/21 07:37:16;;;;;;;12.40;6.20;;;;;;;-5.18;100.00;102682.56;4947409;28;20089;-73
2021/12/21 07:39:41;;;;;;;14.77;7.20;;;;;;;-5.13;100.00;102678.25;4931316;28;20027;-73
2021/12/21 07:42:07;;;;;;;10.88;6.13;;;;;;;-5.12;100.00;102669.56;4942541;28;20034;-73
2021/12/21 07:44:32;;;;;;;14.25;6.47;;;;;;;-5.13;100.00;102666.94;4921771;28;20023;-73
2021/12/21 07:46:57;;;;;;;16.00;7.25;;;;;;;-5.08;100.00;102667.88;4929920;28;20498;-73
2021/12/21 07:49:23;;;;;;;13.07;6.35;;;;;;;-4.94;100.00;102694.31;4944599;28;20498;-72
2021/12/21 07:51:49;;;;;;;11.88;5.78;;;;;;;-4.89;100.00;102690.00;4961285;28;20034;-73
2021/12/21 07:54:15;;;;;;;10.95;7.05;;;;;;;-5.02;100.00;102683.69;4948261;28;20497;-73
2021/12/21 07:56:40;;;;;;;11.43;5.88;;;;;;;-5.04;100.00;102679.28;4943993;28;20039;-73
2021/12/21 07:59:06;;;;;;;11.38;6.10;;;;;;;-4.94;100.00;102698.66;4960161;28;20046;-73
2021/12/21 08:01:32;;;;;;;10.15;5.53;;;;;;;-4.99;100.00;102686.34;4962174;28;20034;-73
2021/12/21 08:03:57;;;;;;;16.65;7.07;;;;;;;-4.88;100.00;102685.66;4946274;28;20444;-72
2021/12/21 08:06:23;;;;;;;8.07;5.93;;;;;;;-4.78;100.00;102684.97;4944785;28;20130;-73
2021/12/21 08:08:49;;;;;;;13.75;6.35;;;;;;;-4.52;100.00;102701.09;4944783;28;20034;-73
2021/12/21 08:14:00;;;;;;;12.32;6.40;;;;;;;-4.45;100.00;102660.09;4952677;28;20073;-73
2021/12/21 08:16:25;;;;;;;16.77;6.95;;;;;;;-4.15;99.51;102687.59;4944701;28;20022;-73
2021/12/21 08:18:51;;;;;;;13.35;6.70;;;;;;;-4.16;99.63;102679.72;4930250;28;20074;-73
2021/12/21 08:21:18;;;;;;;11.32;6.78;;;;;;;-4.11;99.68;102678.06;4945708;28;20026;-73
2021/12/21 08:23:43;;;;;;;11.68;6.70;;;;;;;-3.86;99.58;102688.84;4929295;28;20501;-73
2021/12/21 08:26:08;;;;;;;14.25;7.05;;;;;;;-3.66;97.79;102673.31;4948296;28;20114;-73
2021/12/21 08:28:34;;;;;;;14.73;5.97;;;;;;;-3.29;98.13;102676.34;4943750;28;20042;-73
2021/12/21 08:30:59;;;;;;;10.40;6.15;;;;;;;-3.01;96.76;102689.72;4927962;28;20122;-73
2021/12/21 08:33:25;;;;;;;16.52;6.47;;;;;;;-2.89;95.31;102689.81;4933273;28;20026;-71
2021/12/21 08:35:50;;;;;;;17.70;7.07;;;;;;;-2.63;95.68;102675.13;4929796;28;20034;-71
2021/12/21 08:38:18;;;;;;;14.13;6.25;;;;;;;-2.38;94.15;102691.91;4931755;28;20035;-72
2021/12/21 08:40:48;;;;;;;12.55;6.05;;;;;;;-2.17;93.32;102688.53;4927407;28;20085;-72
2021/12/21 08:43:16;;;;;;;18.20;9.27;;;;;;;-1.97;91.03;102698.28;4929918;28;20357;-72
2021/12/21 08:45:43;;;;;;;20.35;9.15;;;;;;;-1.95;90.03;102701.81;4939412;28;20781;-71
2021/12/21 08:48:11;;;;;;;16.40;8.95;;;;;;;-1.73;89.98;102694.88;4933414;28;20041;-71
2021/12/21 08:50:36;;;;;;;18.73;8.85;;;;;;;-1.86;90.34;102687.81;4947389;28;20062;-71
2021/12/21 08:53:02;;;;;;;15.50;8.18;;;;;;;-1.82;89.49;102705.38;4942237;28;20069;-72
2021/12/21 08:55:28;;;;;;;11.50;6.70;;;;;;;-1.81;90.66;102686.97;4944145;28;20039;-72
2021/12/21 08:57:54;;;;;;;16.08;7.45;;;;;;;-1.48;90.99;102702.00;4943341;28;20031;-72
2021/12/21 09:00:20;;;;;;;14.70;7.43;;;;;;;-1.43;90.56;102689.69;4929597;28;20031;-73
2021/12/21 09:02:45;;;;;;;37.72;7.82;;;;;;;-1.38;90.47;102702.00;4930436;28;20026;-72
2021/12/21 09:05:12;;;;;;;17.00;7.28;;;;;;;-1.26;89.95;102706.44;4945131;28;20142;-74
2021/12/21 09:07:38;;;;;;;14.85;8.13;;;;;;;-0.90;90.04;102706.44;4944168;28;20506;-72
2021/12/21 09:10:05;;;;;;;22.73;8.20;;;;;;;-0.62;88.21;102717.00;4941969;28;20065;-72
2021/12/21 09:12:31;;;;;;;14.45;7.68;;;;;;;-0.58;88.43;102709.94;4945984;28;20386;-72
2021/12/21 09:14:56;;;;;;;15.65;7.40;;;;;;;-0.41;88.89;102696.72;4929448;28;20500;-72
2021/12/21 09:17:21;;;;;;;13.50;7.13;;;;;;;-0.14;88.16;102706.38;4958899;28;20058;-72
2021/12/21 09:19:47;;;;;;;15.55;7.50;;;;;;;-0.11;88.64;102706.31;4938716;28;20066;-72
2021/12/21 09:22:12;;;;;;;13.68;8.55;;;;;;;0.03;88.94;102697.50;4944774;28;20042;-73
2021/12/21 09:24:37;;;;;;;18.30;9.10;;;;;;;0.21;89.00;102705.34;4949568;28;20054;-72
2021/12/21 09:27:03;;;;;;;18.70;8.13;;;;;;;0.13;90.77;102713.31;4948333;28;20037;-74
2021/12/21 09:29:28;;;;;;;14.60;9.15;;;;;;;0.40;89.67;102703.50;4964658;28;20636;-72
2021/12/21 09:31:53;;;;;;;16.73;9.25;;;;;;;0.69;87.99;102701.56;4929937;28;20760;-74
2021/12/21 09:34:19;;;;;;;18.88;9.70;;;;;;;1.26;85.69;102697.59;4957810;28;20080;-74
2021/12/21 09:36:44;;;;;;;19.85;9.30;;;;;;;1.52;84.46;102709.72;4947752;28;20062;-73
2021/12/21 09:39:09;;;;;;;23.38;9.43;;;;;;;1.77;84.32;102699.75;4940255;28;20041;-72
2021/12/21 09:41:35;;;;;;;17.45;8.65;;;;;;;2.50;81.12;102693.56;4950180;28;20038;-73
2021/12/21 09:44:01;;;;;;;18.20;7.53;;;;;;;3.10;79.17;102694.41;4947934;28;20114;-73
2021/12/21 09:46:26;;;;;;;17.10;7.82;;;;;;;3.32;77.12;102697.59;4950479;28;20073;-73
2021/12/21 09:48:52;;;;;;;15.02;8.18;;;;;;;3.60;77.46;102687.31;4956802;28;20419;-73
2021/12/21 09:51:17;;;;;;;17.73;8.95;;;;;;;4.08;74.57;102693.50;4933515;28;20027;-73
2021/12/21 09:53:43;;;;;;;22.15;9.48;;;;;;;4.68;73.00;102695.75;4945355;28;20081;-73
2021/12/21 09:56:08;;;;;;;18.90;9.30;;;;;;;4.92;71.94;102695.16;4949177;28;20042;-73
2021/12/21 09:58:34;;;;;;;19.08;9.85;;;;;;;4.87;69.80;102682.88;4945134;28;20698;-73
2021/12/21 10:00:59;;;;;;;23.15;9.80;;;;;;;5.21;68.02;102680.25;4927384;28;20046;-72
2021/12/21 10:03:25;;;;;;;23.15;10.75;;;;;;;5.60;67.38;102684.56;4940638;28;20030;-73
2021/12/21 10:06:01;;;;;;;22.15;10.48;;;;;;;6.05;65.67;102687.78;4947133;28;20030;-73
2021/12/21 10:08:30;;;;;;;20.20;10.10;;;;;;;6.23;65.44;102678.38;4946316;28;20019;-73
2021/12/21 10:10:55;;;;;;;19.00;9.18;;;;;;;7.17;62.49;102678.06;4945655;28;20110;-73
2021/12/21 10:13:24;;;;;;;25.15;9.95;;;;;;;7.41;60.45;102687.97;4945832;28;20464;-73
2021/12/21 10:15:57;;;;;;;22.42;10.60;;;;;;;6.75;62.42;102682.09;4949249;28;20041;-73
2021/12/21 10:18:24;;;;;;;17.73;9.50;;;;;;;6.52;63.54;102668.59;4963700;28;20034;-75
2021/12/21 10:20:50;;;;;;;20.55;10.10;;;;;;;6.77;64.88;102665.16;4966087;28;20037;-73
2021/12/21 10:23:20;;;;;;;21.95;9.65;;;;;;;7.05;62.20;102667.78;4947753;28;20030;-73
2021/12/21 10:25:49;;;;;;;25.65;10.35;;;;;;;7.57;62.83;102667.78;4948054;28;20579;-73
2021/12/21 10:28:41;;;;;;;19.98;9.65;;;;;;;7.70;60.35;102659.28;4943562;28;20491;-74
2021/12/21 10:31:08;;;;;;;21.35;10.25;;;;;;;7.69;62.29;102653.09;4953682;28;20027;-73
2021/12/21 10:33:34;;;;;;;24.90;10.30;;;;;;;7.95;58.40;102646.75;4927745;28;20393;-73
2021/12/21 10:36:02;;;;;;;20.70;11.25;;;;;;;8.50;58.59;102656.28;4942113;28;20026;-74
2021/12/21 10:38:37;;;;;;;17.05;9.90;;;;;;;8.72;55.85;102658.13;4941244;28;20563;-74
2021/12/21 10:41:08;;;;;;;20.77;9.88;;;;;;;9.32;53.90;102659.19;4939962;28;20023;-73
2021/12/21 10:43:33;;;;;;;17.90;9.75;;;;;;;9.83;55.93;102646.19;4925331;28;20061;-73
2021/12/21 10:45:59;;;;;;;21.08;9.43;;;;;;;10.42;54.50;102647.06;4944297;28;20419;-73
2021/12/21 10:48:24;;;;;;;17.58;10.40;;;;;;;10.55;51.97;102646.44;4959470;28;20391;-72
2021/12/21 10:50:50;;;;;;;21.15;10.00;;;;;;;10.69;51.23;102656.50;4944332;28;20117;-73
2021/12/21 10:53:21;;;;;;;22.40;10.15;;;;;;;11.11;50.20;102644.56;4960773;28;20466;-73
2021/12/21 10:55:46;;;;;;;23.63;10.20;;;;;;;11.33;50.04;102665.81;4941370;28;20499;-73
2021/12/21 10:58:16;;;;;;;23.67;9.98;;;;;;;11.42;48.08;102660.91;4957732;28;20039;-73
2021/12/21 11:00:56;;;;;;;27.13;11.50;;;;;;;11.05;47.34;102643.03;4961972;28;20034;-73
2021/12/21 11:03:53;;;;;;;35.13;11.68;;;;;;;10.83;46.58;102651.34;4947753;28;20895;-74
2021/12/21 11:06:23;;;;;;;24.08;11.13;;;;;;;10.88;48.48;102637.66;4925432;28;20077;-73
2021/12/21 11:08:51;;;;;;;24.30;10.85;;;;;;;10.80;47.72;102636.22;4942450;28;20065;-73
2021/12/21 11:11:42;;;;;;;33.58;16.05;;;;;;;10.39;47.65;102644.50;4944557;28;20137;-74
2021/12/21 11:14:17;;;;;;;30.70;14.73;;;;;;;10.86;48.03;102636.88;4957348;28;20363;-74
2021/12/21 11:16:48;;;;;;;26.75;13.00;;;;;;;10.29;46.82;102630.63;4956878;28;20042;-73
2021/12/21 11:19:16;;;;;;;25.95;12.00;;;;;;;10.36;49.31;102617.78;4960405;28;20154;-73
2021/12/21 11:21:42;;;;;;;20.42;10.75;;;;;;;10.01;49.02;102626.56;4962946;28;20288;-73
2021/12/21 11:24:12;;;;;;;23.02;11.20;;;;;;;10.59;50.08;102615.81;4958774;28;20035;-74
2021/12/21 11:26:39;;;;;;;23.98;11.05;;;;;;;9.71;49.94;102610.06;4942773;28;20549;-74
2021/12/21 11:29:07;;;;;;;25.45;11.10;;;;;;;9.98;50.96;102596.31;4942764;28;20054;-74
2021/12/21 11:31:40;;;;;;;20.88;10.77;;;;;;;10.32;49.92;102600.06;4948405;28;20074;-74
2021/12/21 11:34:13;;;;;;;20.13;10.18;;;;;;;11.61;47.84;102597.09;4931263;28;20030;-75
2021/12/21 11:39:23;;;;;;;22.50;11.95;;;;;;;11.42;47.20;102596.38;4961077;28;20045;-74
2021/12/21 11:41:49;;;;;;;18.10;9.95;;;;;;;11.92;45.46;102597.28;4940560;28;21149;-74
2021/12/21 11:44:33;;;;;;;20.38;10.52;;;;;;;11.82;43.29;102589.69;4958278;28;20034;-75
2021/12/21 11:47:02;;;;;;;23.95;11.27;;;;;;;11.94;45.52;102582.75;4962860;28;20114;-73
2021/12/21 11:49:34;;;;;;;18.67;9.38;;;;;;;12.62;43.76;102591.53;4941969;28;20031;-74
2021/12/21 11:52:28;;;;;;;24.00;10.27;;;;;;;13.49;42.82;102587.22;4942014;28;20041;-74
2021/12/21 11:54:56;;;;;;;21.35;10.25;;;;;;;13.69;42.07;102578.81;4936777;28;20039;-74
2021/12/21 11:57:38;;;;;;;20.58;10.43;;;;;;;13.97;39.63;102575.22;4923408;28;20023;-74
2021/12/21 12:00:09;;;;;;;22.27;10.07;;;;;;;14.19;39.16;102572.00;4956687;28;20387;-74
2021/12/21 12:02:35;;;;;;;15.15;8.48;;;;;;;14.45;41.01;102577.50;4939248;28;20041;-74
2021/12/21 12:05:00;;;;;;;19.25;10.02;;;;;;;14.29;40.13;102555.19;4941438;28;20042;-74
2021/12/21 12:07:26;;;;;;;19.92;10.80;;;;;;;14.42;39.45;102575.00;4956787;28;20058;-74
2021/12/21 12:10:10;;;;;;;18.95;9.77;;;;;;;13.87;38.14;102572.25;4938245;28;20031;-75
2021/12/21 12:12:35;;;;;;;20.35;10.25;;;;;;;13.63;41.28;102572.84;4926238;28;20158;-74
2021/12/21 12:15:04;;;;;;;18.63;9.57;;;;;;;14.29;39.30;102561.44;4943243;28;20387;-74